createdAt,value
2022-07-30T00:01:52.926Z,10.27
2022-07-30T00:04:20.404Z,8.52
2022-07-30T00:06:47.398Z,8.02
2022-07-30T00:09:14.443Z,8.38
2022-07-30T00:11:41.511Z,8.30
2022-07-30T00:14:08.519Z,7.68
2022-07-30T00:16:35.532Z,6.50
2022-07-30T00:19:02.843Z,10.32
2022-07-30T00:21:36.273Z,11.95
2022-07-30T00:24:06.726Z,6.78
2022-07-30T00:26:33.618Z,5.47
2022-07-30T00:29:00.651Z,7.00
2022-07-30T00:31:28.914Z,8.25
2022-07-30T00:33:55.943Z,9.45
2022-07-30T00:36:23.209Z,4.28
2022-07-30T00:38:50.466Z,6.75
2022-07-30T00:41:17.468Z,7.72
2022-07-30T00:43:45.384Z,9.27
2022-07-30T00:46:14.811Z,5.40
2022-07-30T00:48:42.404Z,5.28
2022-07-30T00:51:09.750Z,6.55
2022-07-30T00:53:37.095Z,9.02
2022-07-30T00:56:04.904Z,8.38
2022-07-30T00:58:31.838Z,6.28
2022-07-30T01:00:59.226Z,6.00
2022-07-30T01:03:26.179Z,5.35
2022-07-30T01:05:53.046Z,7.07
2022-07-30T01:08:19.942Z,7.57
2022-07-30T01:10:46.777Z,10.30
2022-07-30T01:13:13.837Z,12.57
2022-07-30T01:15:41.504Z,7.45
2022-07-30T01:18:11.552Z,7.95
2022-07-30T01:21:04.077Z,6.13
2022-07-30T01:23:43.265Z,6.72
2022-07-30T01:26:14.557Z,9.32
2022-07-30T01:28:45.938Z,9.02
2022-07-30T01:31:14.555Z,9.45
2022-07-30T01:33:44.910Z,8.68
2022-07-30T01:36:15.937Z,5.97
2022-07-30T01:38:45.483Z,4.80
2022-07-30T01:41:15.492Z,8.85
2022-07-30T01:43:45.179Z,17.48
2022-07-30T01:46:14.702Z,18.33
2022-07-30T01:48:44.508Z,18.55
2022-07-30T01:51:13.383Z,21.40
2022-07-30T01:53:46.074Z,13.82
2022-07-30T01:56:16.632Z,15.00
2022-07-30T01:58:46.957Z,12.32
2022-07-30T02:01:20.106Z,15.05
2022-07-30T02:03:47.665Z,11.13
2022-07-30T02:06:21.226Z,11.50
2022-07-30T02:08:56.435Z,15.90
2022-07-30T02:11:44.366Z,13.55
2022-07-30T02:14:26.887Z,17.90
2022-07-30T02:16:59.141Z,11.95
2022-07-30T02:19:36.746Z,12.18
2022-07-30T02:22:11.693Z,10.23
2022-07-30T02:24:42.952Z,12.65
2022-07-30T02:27:23.015Z,14.60
2022-07-30T02:29:54.303Z,14.90
2022-07-30T02:32:24.599Z,15.68
2022-07-30T02:35:01.568Z,15.77
2022-07-30T02:37:41.722Z,13.30
2022-07-30T02:40:16.119Z,9.63
2022-07-30T02:42:45.766Z,13.82
2022-07-30T02:45:17.959Z,11.55
2022-07-30T02:48:01.144Z,14.50
2022-07-30T02:50:29.757Z,13.00
2022-07-30T02:52:59.419Z,18.08
2022-07-30T02:55:29.660Z,16.17
2022-07-30T02:57:57.657Z,18.33
2022-07-30T03:00:25.808Z,20.33
2022-07-30T03:02:56.735Z,19.90
2022-07-30T03:05:25.721Z,24.70
2022-07-30T03:07:56.462Z,29.10
2022-07-30T03:10:25.262Z,24.02
2022-07-30T03:12:53.080Z,25.45
2022-07-30T03:15:20.166Z,22.05
2022-07-30T03:17:54.095Z,23.92
2022-07-30T03:20:31.707Z,20.70
2022-07-30T03:23:01.501Z,22.13
2022-07-30T03:25:30.747Z,23.83
2022-07-30T03:28:01.565Z,21.38
2022-07-30T03:30:29.269Z,23.10
2022-07-30T03:32:56.526Z,22.92
2022-07-30T03:35:31.219Z,22.08
2022-07-30T03:38:00.137Z,22.20
2022-07-30T03:40:28.642Z,22.65
2022-07-30T03:42:56.030Z,27.23
2022-07-30T03:45:25.177Z,28.50
2022-07-30T03:47:57.868Z,26.42
2022-07-30T03:50:25.342Z,24.20
2022-07-30T03:52:53.255Z,24.05
2022-07-30T03:55:20.408Z,19.92
2022-07-30T03:57:50.242Z,24.77
2022-07-30T04:00:19.917Z,22.30
2022-07-30T04:02:52.029Z,20.15
2022-07-30T04:05:41.083Z,25.98
2022-07-30T04:08:10.560Z,23.48
2022-07-30T04:10:38.628Z,22.02
2022-07-30T04:13:31.505Z,24.17
2022-07-30T04:16:41.231Z,21.92
2022-07-30T04:18:58.320Z,27.50
2022-07-30T04:21:26.906Z,34.15
2022-07-30T04:24:02.371Z,30.58
2022-07-30T04:26:37.661Z,30.08
2022-07-30T04:29:08.129Z,33.08
2022-07-30T04:31:38.431Z,31.20
2022-07-30T04:34:26.775Z,30.58
2022-07-30T04:36:54.113Z,24.77
2022-07-30T04:39:21.068Z,29.30
2022-07-30T04:41:49.538Z,28.38
2022-07-30T04:44:38.332Z,25.60
2022-07-30T04:47:26.694Z,26.55
2022-07-30T04:50:20.559Z,21.27
2022-07-30T04:52:48.677Z,24.15
2022-07-30T04:55:23.280Z,25.55
2022-07-30T04:57:53.032Z,21.60
2022-07-30T05:00:20.067Z,25.85
2022-07-30T05:02:49.060Z,25.23
2022-07-30T05:05:17.716Z,24.25
2022-07-30T05:07:46.510Z,23.10
2022-07-30T05:10:14.527Z,20.05
2022-07-30T05:12:42.712Z,27.50
2022-07-30T05:15:11.188Z,23.23
2022-07-30T05:17:38.663Z,26.67
2022-07-30T05:20:09.780Z,22.85
2022-07-30T05:22:59.674Z,22.10
2022-07-30T05:25:26.764Z,22.88
2022-07-30T05:27:59.782Z,23.02
2022-07-30T05:30:27.630Z,21.25
2022-07-30T05:32:57.226Z,22.80
2022-07-30T05:35:24.929Z,16.25
2022-07-30T05:37:51.833Z,20.27
2022-07-30T05:40:19.868Z,19.25
2022-07-30T05:43:03.500Z,15.43
2022-07-30T05:45:30.621Z,21.25
2022-07-30T05:47:57.613Z,18.85
2022-07-30T05:50:25.096Z,19.13
2022-07-30T05:52:52.269Z,15.50
2022-07-30T05:55:39.246Z,15.90
2022-07-30T05:58:16.141Z,16.58
2022-07-30T06:00:43.252Z,15.18
2022-07-30T06:03:10.470Z,18.38
2022-07-30T06:06:07.162Z,19.20
2022-07-30T06:08:34.877Z,15.73
2022-07-30T06:11:01.784Z,17.23
2022-07-30T06:13:29.493Z,17.10
2022-07-30T06:15:56.788Z,13.90
2022-07-30T06:18:23.739Z,13.25
2022-07-30T06:20:54.257Z,15.57
2022-07-30T06:23:32.886Z,15.85
2022-07-30T06:26:02.696Z,10.25
2022-07-30T06:28:38.799Z,13.60
2022-07-30T06:31:16.458Z,12.13
2022-07-30T06:33:43.554Z,12.18
2022-07-30T06:36:13.985Z,14.88
2022-07-30T06:39:00.014Z,12.77
2022-07-30T06:41:47.125Z,11.88
2022-07-30T06:44:15.046Z,14.20
2022-07-30T06:47:06.841Z,15.65
2022-07-30T06:49:35.884Z,12.47
2022-07-30T06:52:03.686Z,10.27
2022-07-30T06:54:30.915Z,8.32
2022-07-30T06:57:04.377Z,13.98
2022-07-30T06:59:31.540Z,9.10
2022-07-30T07:02:11.896Z,10.50
2022-07-30T07:05:11.277Z,7.38
2022-07-30T07:07:44.490Z,7.75
2022-07-30T07:10:21.102Z,6.75
2022-07-30T07:12:54.846Z,7.47
2022-07-30T07:15:36.862Z,7.43
2022-07-30T07:18:06.962Z,11.83
2022-07-30T07:20:38.711Z,7.95
2022-07-30T07:23:09.333Z,6.60
2022-07-30T07:25:40.561Z,7.68
2022-07-30T07:28:11.591Z,9.13
2022-07-30T07:30:44.745Z,8.20
2022-07-30T07:33:15.481Z,7.18
2022-07-30T07:35:49.481Z,9.75
2022-07-30T07:38:26.094Z,9.40
2022-07-30T07:40:54.830Z,8.40
2022-07-30T07:43:21.892Z,8.13
2022-07-30T07:45:49.832Z,8.50
2022-07-30T07:48:18.313Z,9.95
2022-07-30T07:50:51.682Z,6.60
2022-07-30T07:53:24.413Z,9.18
2022-07-30T07:55:52.318Z,7.20
2022-07-30T07:58:26.223Z,9.25
2022-07-30T08:00:57.312Z,5.30
2022-07-30T08:03:40.545Z,7.00
2022-07-30T08:06:26.250Z,6.53
2022-07-30T08:09:13.381Z,10.15
2022-07-30T08:12:15.625Z,5.63
2022-07-30T08:15:01.661Z,6.82
2022-07-30T08:18:00.622Z,10.52
2022-07-30T08:20:45.835Z,8.73
2022-07-30T08:23:13.883Z,7.65
2022-07-30T08:25:40.753Z,8.95
2022-07-30T08:28:07.650Z,6.28
2022-07-30T08:30:56.006Z,8.52
2022-07-30T08:33:27.530Z,11.93
2022-07-30T08:35:59.017Z,4.95
2022-07-30T08:38:26.452Z,5.43
2022-07-30T08:40:56.179Z,5.05
2022-07-30T08:43:25.419Z,8.57
2022-07-30T08:45:53.960Z,7.00
2022-07-30T08:48:35.897Z,8.57
2022-07-30T08:51:03.178Z,6.85
2022-07-30T08:53:34.225Z,5.38
2022-07-30T08:56:03.214Z,6.82
2022-07-30T08:58:36.330Z,9.43
2022-07-30T09:01:05.267Z,8.18
2022-07-30T09:03:32.833Z,10.90
2022-07-30T09:06:02.480Z,6.95
2022-07-30T09:08:29.895Z,8.43
2022-07-30T09:10:57.093Z,7.22
2022-07-30T09:13:27.817Z,10.52
2022-07-30T09:15:57.944Z,13.30
2022-07-30T09:18:29.310Z,11.23
2022-07-30T09:20:56.633Z,7.90
2022-07-30T09:23:24.390Z,7.47
2022-07-30T09:26:09.854Z,7.88
2022-07-30T09:29:16.873Z,8.52
2022-07-30T09:32:05.023Z,5.97
2022-07-30T09:34:50.707Z,7.57
2022-07-30T09:38:05.897Z,11.75
2022-07-30T09:41:17.230Z,10.32
2022-07-30T09:44:07.835Z,9.50
2022-07-30T09:46:51.607Z,10.10
2022-07-30T09:49:28.222Z,8.85
2022-07-30T09:52:00.337Z,8.40
2022-07-30T09:54:52.994Z,7.90
2022-07-30T09:57:27.940Z,8.57
2022-07-30T10:00:37.643Z,10.70
2022-07-30T10:03:41.577Z,10.15
2022-07-30T10:06:44.119Z,8.02
2022-07-30T10:09:32.073Z,9.27
2022-07-30T10:14:42.885Z,9.23
2022-07-30T10:17:13.412Z,11.43
2022-07-30T10:19:42.780Z,8.52
2022-07-30T10:22:28.768Z,10.52
2022-07-30T10:25:11.681Z,12.10
2022-07-30T10:28:22.791Z,9.07
2022-07-30T10:30:52.764Z,8.80
2022-07-30T10:33:36.619Z,7.72
2022-07-30T10:36:11.695Z,10.02
2022-07-30T10:38:41.629Z,8.80
2022-07-30T10:41:44.324Z,9.68
2022-07-30T10:44:36.529Z,8.20
2022-07-30T10:47:09.412Z,4.68
2022-07-30T10:49:41.226Z,7.43
2022-07-30T10:52:10.911Z,8.52
2022-07-30T10:54:45.585Z,9.45
2022-07-30T10:57:23.083Z,7.25
2022-07-30T11:00:03.788Z,5.32
2022-07-30T11:02:35.571Z,7.80
2022-07-30T11:05:18.679Z,8.38
2022-07-30T11:08:42.859Z,6.30
2022-07-30T11:12:01.821Z,10.75
2022-07-30T11:14:48.335Z,6.70
2022-07-30T11:17:19.802Z,7.18
2022-07-30T11:20:11.709Z,8.57
2022-07-30T11:22:41.088Z,11.18
2022-07-30T11:25:49.927Z,10.73
2022-07-30T11:28:38.172Z,8.18
2022-07-30T11:31:37.116Z,7.07
2022-07-30T11:34:20.071Z,6.65
2022-07-30T11:37:18.056Z,7.95
2022-07-30T11:39:58.040Z,6.68
2022-07-30T11:42:35.885Z,4.35
2022-07-30T11:45:18.409Z,7.78
2022-07-30T11:47:51.434Z,7.47
2022-07-30T11:50:19.539Z,8.48
2022-07-30T11:52:51.520Z,8.23
2022-07-30T11:55:32.688Z,7.15
2022-07-30T11:58:01.335Z,10.60
2022-07-30T12:00:37.414Z,6.20
2022-07-30T12:03:12.629Z,6.25
2022-07-30T12:05:40.562Z,6.88
2022-07-30T12:08:07.707Z,6.10
2022-07-30T12:10:39.566Z,6.30
2022-07-30T12:13:15.173Z,4.35
2022-07-30T12:15:44.930Z,11.60
2022-07-30T12:18:28.980Z,11.80
2022-07-30T12:21:00.816Z,10.55
2022-07-30T12:23:29.537Z,8.70
2022-07-30T12:25:58.082Z,11.75
2022-07-30T12:28:31.420Z,13.40
2022-07-30T12:31:00.160Z,10.73
2022-07-30T12:33:27.072Z,11.77
2022-07-30T12:35:59.020Z,5.43
2022-07-30T12:38:27.508Z,13.80
2022-07-30T12:40:55.625Z,15.23
2022-07-30T12:43:46.353Z,20.35
2022-07-30T12:46:16.693Z,14.70
2022-07-30T12:48:49.819Z,12.65
2022-07-30T12:51:17.075Z,13.45
2022-07-30T12:53:44.152Z,17.17
2022-07-30T12:56:30.968Z,12.18
2022-07-30T12:58:59.400Z,10.43
2022-07-30T13:01:47.099Z,11.52
2022-07-30T13:04:16.935Z,17.95
2022-07-30T13:06:43.838Z,12.40
2022-07-30T13:09:20.846Z,15.63
2022-07-30T13:11:49.351Z,14.52
2022-07-30T13:14:17.363Z,15.23
2022-07-30T13:16:44.523Z,14.63
2022-07-30T13:19:12.247Z,10.85
2022-07-30T13:21:40.504Z,13.07
2022-07-30T13:24:18.139Z,16.05
2022-07-30T13:26:45.679Z,14.18
2022-07-30T13:29:13.659Z,14.18
2022-07-30T13:31:42.628Z,16.08
2022-07-30T13:34:11.035Z,12.35
2022-07-30T13:36:38.179Z,13.65
2022-07-30T13:39:05.097Z,17.70
2022-07-30T13:41:33.191Z,18.67
2022-07-30T13:44:00.163Z,17.33
2022-07-30T13:46:27.018Z,10.65
2022-07-30T13:48:54.939Z,13.00
2022-07-30T13:51:21.952Z,11.38
2022-07-30T13:53:48.939Z,17.13
2022-07-30T13:56:16.796Z,9.43
2022-07-30T13:58:46.910Z,11.90
2022-07-30T14:01:17.813Z,12.85
2022-07-30T14:03:49.899Z,9.93
2022-07-30T14:06:18.478Z,11.65
2022-07-30T14:08:45.419Z,8.98
2022-07-30T14:11:12.534Z,8.90
2022-07-30T14:13:39.456Z,8.48
2022-07-30T14:16:22.747Z,10.73
2022-07-30T14:18:53.642Z,9.00
2022-07-30T14:21:20.513Z,8.82
2022-07-30T14:23:47.866Z,10.27
2022-07-30T14:26:15.117Z,9.43
2022-07-30T14:28:42.112Z,11.23
2022-07-30T14:31:08.996Z,9.15
2022-07-30T14:33:36.047Z,9.80
2022-07-30T14:36:02.970Z,8.85
2022-07-30T14:38:29.835Z,14.00
2022-07-30T14:40:56.961Z,13.00
2022-07-30T14:43:24.937Z,12.70
2022-07-30T14:45:53.356Z,10.05
2022-07-30T14:48:20.640Z,8.38
2022-07-30T14:51:11.643Z,9.93
2022-07-30T14:53:34.633Z,8.93
2022-07-30T14:56:01.559Z,8.30
2022-07-30T14:58:28.693Z,5.38
2022-07-30T15:00:55.695Z,4.40
2022-07-30T15:03:23.396Z,5.65
2022-07-30T15:05:53.027Z,3.90
2022-07-30T15:08:20.051Z,4.40
2022-07-30T15:10:46.935Z,3.95
2022-07-30T15:13:15.923Z,8.77
2022-07-30T15:15:43.257Z,7.70
2022-07-30T15:18:13.315Z,7.05
2022-07-30T15:20:40.211Z,4.80
2022-07-30T15:23:11.646Z,8.82
2022-07-30T15:25:41.132Z,6.60
2022-07-30T15:28:08.002Z,3.30
2022-07-30T15:30:36.703Z,6.50
2022-07-30T15:33:03.670Z,7.63
2022-07-30T15:35:30.641Z,5.10
2022-07-30T15:37:59.098Z,4.35
2022-07-30T15:40:26.157Z,3.50
2022-07-30T15:42:53.115Z,6.90
2022-07-30T15:45:20.260Z,5.65
2022-07-30T15:47:47.214Z,5.63
2022-07-30T15:50:15.540Z,6.38
2022-07-30T15:52:42.418Z,6.13
2022-07-30T15:55:09.633Z,5.10
2022-07-30T15:57:36.777Z,6.65
2022-07-30T16:00:05.562Z,7.10
2022-07-30T16:02:39.874Z,7.63
2022-07-30T16:05:11.791Z,8.60
2022-07-30T16:07:40.521Z,13.25
2022-07-30T16:10:07.798Z,8.52
2022-07-30T16:12:34.725Z,8.75
2022-07-30T16:15:01.891Z,11.50
2022-07-30T16:17:28.908Z,10.27
2022-07-30T16:19:55.814Z,9.05
2022-07-30T16:22:24.271Z,12.68
2022-07-30T16:24:51.533Z,10.05
2022-07-30T16:27:18.786Z,10.10
2022-07-30T16:29:45.730Z,8.25
2022-07-30T16:32:12.599Z,9.15
2022-07-30T16:34:39.487Z,7.47
2022-07-30T16:37:06.381Z,9.20
2022-07-30T16:39:33.249Z,3.90
2022-07-30T16:42:00.661Z,7.18
2022-07-30T16:44:31.694Z,8.68
2022-07-30T16:46:58.662Z,7.28
2022-07-30T16:49:26.110Z,7.50
2022-07-30T16:51:54.238Z,8.70
2022-07-30T16:54:21.418Z,9.20
2022-07-30T16:56:52.774Z,6.55
2022-07-30T16:59:20.743Z,8.55
2022-07-30T17:01:48.605Z,5.57
2022-07-30T17:04:16.110Z,9.57
2022-07-30T17:06:44.547Z,5.40
2022-07-30T17:09:15.719Z,5.95
2022-07-30T17:11:47.232Z,5.55
2022-07-30T17:14:22.250Z,7.78
2022-07-30T17:16:50.253Z,6.82
2022-07-30T17:19:17.411Z,10.00
2022-07-30T17:21:44.759Z,8.50
2022-07-30T17:24:13.510Z,4.28
2022-07-30T17:26:43.233Z,3.22
2022-07-30T17:29:15.030Z,5.20
2022-07-30T17:31:46.178Z,4.90
2022-07-30T17:34:15.176Z,7.53
2022-07-30T17:36:51.630Z,4.05
2022-07-30T17:40:26.658Z,6.50
2022-07-30T17:42:10.569Z,6.10
2022-07-30T17:44:39.416Z,6.00
2022-07-30T17:47:11.023Z,9.45
2022-07-30T17:49:41.108Z,6.50
2022-07-30T17:52:08.846Z,5.88
2022-07-30T17:54:36.069Z,5.53
2022-07-30T17:57:03.309Z,5.18
2022-07-30T17:59:30.432Z,5.68
2022-07-30T18:01:59.856Z,5.93
2022-07-30T18:04:27.418Z,7.95
2022-07-30T18:06:54.530Z,9.07
2022-07-30T18:09:21.804Z,8.57
2022-07-30T18:11:49.364Z,10.23
2022-07-30T18:14:16.358Z,11.80
2022-07-30T18:16:43.621Z,8.00
2022-07-30T18:19:22.627Z,9.48
2022-07-30T18:21:55.139Z,10.35
2022-07-30T18:24:24.603Z,7.13
2022-07-30T18:26:52.579Z,14.95
2022-07-30T18:29:19.578Z,8.73
2022-07-30T18:31:48.518Z,6.15
2022-07-30T18:34:15.575Z,8.90
2022-07-30T18:36:42.701Z,9.07
2022-07-30T18:39:09.964Z,11.35
2022-07-30T18:41:36.982Z,9.48
2022-07-30T18:44:04.298Z,14.00
2022-07-30T18:46:31.453Z,14.25
2022-07-30T18:49:10.623Z,10.82
2022-07-30T18:51:45.558Z,10.30
2022-07-30T18:54:12.552Z,11.52
2022-07-30T18:56:39.541Z,10.27
2022-07-30T18:59:06.586Z,9.52
2022-07-30T19:01:33.679Z,9.95
2022-07-30T19:04:00.624Z,10.35
2022-07-30T19:06:27.768Z,9.45
2022-07-30T19:08:54.805Z,9.70
2022-07-30T19:11:21.851Z,11.45
2022-07-30T19:13:48.927Z,10.77
2022-07-30T19:16:15.950Z,10.85
2022-07-30T19:18:42.928Z,9.20
2022-07-30T19:21:13.943Z,11.85
2022-07-30T19:23:41.527Z,12.80
2022-07-30T19:26:08.586Z,11.38
2022-07-30T19:28:36.427Z,8.23
2022-07-30T19:31:03.403Z,5.57
2022-07-30T19:33:30.383Z,7.07
2022-07-30T19:35:57.410Z,9.07
2022-07-30T19:38:24.546Z,7.25
2022-07-30T19:40:52.287Z,8.00
2022-07-30T19:43:24.024Z,7.63
2022-07-30T19:45:51.778Z,9.30
2022-07-30T19:48:29.262Z,4.15
2022-07-30T19:53:46.771Z,11.70
2022-07-30T19:56:13.938Z,11.52
2022-07-30T19:58:41.652Z,5.07
2022-07-30T20:01:10.132Z,7.13
2022-07-30T20:03:39.167Z,6.47
2022-07-30T20:06:08.006Z,8.48
2022-07-30T20:08:38.900Z,8.65
2022-07-30T20:11:07.446Z,12.52
2022-07-30T20:13:44.093Z,6.65
2022-07-30T20:16:14.573Z,6.35
2022-07-30T20:18:42.800Z,6.85
2022-07-30T20:21:14.643Z,10.38
2022-07-30T20:23:42.921Z,6.68
2022-07-30T20:26:13.515Z,8.50
2022-07-30T20:28:45.691Z,7.07
2022-07-30T20:31:13.245Z,3.85
2022-07-30T20:33:40.491Z,7.65
2022-07-30T20:36:10.112Z,6.20
2022-07-30T20:38:39.051Z,6.13
2022-07-30T20:41:10.295Z,8.30
2022-07-30T20:43:46.087Z,8.07
2022-07-30T20:46:20.681Z,7.22
2022-07-30T20:48:53.936Z,5.63
2022-07-30T20:51:20.908Z,7.57
2022-07-30T20:53:49.380Z,5.50
2022-07-30T20:59:06.414Z,4.63
2022-07-30T21:01:33.359Z,5.10
2022-07-30T21:04:02.103Z,4.63
2022-07-30T21:06:30.143Z,7.25
2022-07-30T21:08:57.045Z,5.25
2022-07-30T21:11:24.168Z,4.18
2022-07-30T21:13:53.063Z,6.15
2022-07-30T21:16:23.589Z,4.68
2022-07-30T21:18:50.825Z,5.47
2022-07-30T21:21:30.479Z,3.85
2022-07-30T21:24:05.819Z,3.75
2022-07-30T21:26:41.906Z,9.63
2022-07-30T21:29:09.684Z,5.65
2022-07-30T21:32:02.190Z,6.93
2022-07-30T21:34:26.330Z,2.75
2022-07-30T21:36:53.966Z,3.33
2022-07-30T21:39:28.815Z,6.18
2022-07-30T21:41:56.346Z,5.45
2022-07-30T21:44:23.752Z,4.20
2022-07-30T21:46:50.813Z,7.95
2022-07-30T21:49:17.833Z,3.65
2022-07-30T21:51:44.857Z,5.03
2022-07-30T21:54:13.900Z,4.60
2022-07-30T21:56:44.238Z,5.78
2022-07-30T21:59:11.515Z,4.45
2022-07-30T22:01:38.658Z,5.05
2022-07-30T22:04:07.773Z,5.90
2022-07-30T22:06:40.486Z,7.30
2022-07-30T22:09:26.347Z,6.35
2022-07-30T22:12:06.325Z,5.30
2022-07-30T22:14:36.231Z,4.28
2022-07-30T22:17:04.327Z,7.45
2022-07-30T22:19:31.704Z,4.55
2022-07-30T22:22:00.196Z,4.43
2022-07-30T22:24:32.116Z,4.07
2022-07-30T22:27:12.470Z,4.78
2022-07-30T22:29:43.526Z,3.10
2022-07-30T22:32:11.965Z,5.40
2022-07-30T22:34:39.446Z,4.85
2022-07-30T22:37:12.635Z,2.65
2022-07-30T22:39:51.906Z,4.68
2022-07-30T22:42:24.015Z,3.42
2022-07-30T22:44:52.655Z,6.70
2022-07-30T22:47:50.364Z,4.65
2022-07-30T22:50:08.109Z,5.03
2022-07-30T22:52:39.639Z,4.70
2022-07-30T22:55:09.069Z,6.25
2022-07-30T23:00:27.487Z,6.43
2022-07-30T23:03:12.212Z,6.28
2022-07-30T23:05:56.701Z,6.00
2022-07-30T23:08:29.517Z,5.97
2022-07-30T23:10:59.978Z,6.80
2022-07-30T23:12:16.804Z,5.70
2022-07-30T23:12:30.811Z,5.22
2022-07-30T23:12:31.606Z,5.25
2022-07-30T23:13:28.415Z,3.78
2022-07-30T23:15:55.564Z,5.65
2022-07-30T23:18:22.774Z,9.40
2022-07-30T23:20:49.897Z,7.47
2022-07-30T23:23:17.146Z,5.70
2022-07-30T23:25:44.364Z,5.60
2022-07-30T23:28:11.796Z,10.80
2022-07-30T23:30:38.911Z,4.95
2022-07-30T23:33:06.056Z,5.93
2022-07-30T23:35:33.824Z,9.38
2022-07-30T23:38:01.055Z,7.32
2022-07-30T23:40:28.593Z,8.35
2022-07-30T23:42:55.888Z,11.05
2022-07-30T23:45:24.335Z,9.00
2022-07-30T23:48:00.965Z,6.55
2022-07-30T23:50:33.444Z,8.30
2022-07-30T23:53:01.915Z,8.40
2022-07-30T23:55:30.102Z,10.52
2022-07-30T23:57:58.325Z,9.00
